Cacilhas — VRUA8 — position and weather

sailwx.info

Track history (hours):
 
Tides and Currents Weather Stations Pressure Air Temp Water Temp Dewpoint Dewpoint Depression Visibility Wind Speed Wind Dir Waves Ship Positions

Cacilhas

Last reported at 2016-Apr-30 17:33 UTC. Time now 2016-Apr-30 18:45 UTC.
Position N 22°12' E 113°51'.

Length 29 m; draft 4.8 m.

Type: High speed craft. MMSI: 477092000.

Date/timePositionNaut miles runAvg speedWind from/ knotsBaromVisibWave heightAir tempDewpointWater temp
2016-Apr-30 17:33N 22°12' E 113°51'1717.4
2016-Apr-30 16:34N 22°17' E 114°09'3316.5
2016-Apr-30 14:33N 22°12' E 113°34'3333.7
2016-Apr-30 13:33N 22°17' E 114°09'1817.9
2016-Apr-30 12:33N 22°11' E 113°51'11 9.8
2016-Apr-30 11:24N 22°11' E 113°39'2934.6
2016-Apr-30 10:33N 22°17' E 114°09'1818.0
2016-Apr-30 09:33N 22°11' E 113°51'9 7.2
2016-Apr-30 08:18N 22°11' E 113°41'2735.7
2016-Apr-30 07:33N 22°17' E 114°09'1918.2
2016-Apr-30 06:32N 22°11' E 113°50'14 6.2
2016-Apr-30 04:15N 22°16' E 114°05'4 6.3
2016-Apr-30 03:33N 22°17' E 114°09'5 2.1
2016-Apr-30 01:15N 22°15' E 114°04'5 7.2
2016-Apr-30 00:33N 22°17' E 114°09'27 4.3
2016-Apr-29 18:14N 22°11' E 113°40'2740.3
2016-Apr-29 17:33N 22°17' E 114°09'1917.9
2016-Apr-29 16:29N 22°11' E 113°49'15 7.6
2016-Apr-29 14:33N 22°12' E 113°34'3333.2
2016-Apr-29 13:33N 22°17' E 114°09'2019.7
2016-Apr-29 12:33N 22°11' E 113°49'1413.1
2016-Apr-29 11:29N 22°11' E 113°34'3335.5
2016-Apr-29 10:33N 22°17' E 114°09'1918.8
2016-Apr-29 09:33N 22°11' E 113°50'8 6.9
2016-Apr-29 08:21N 22°11' E 113°41'2733.4
2016-Apr-29 07:33N 22°17' E 114°09'2020.0
2016-Apr-29 06:34N 22°11' E 113°49'16 7.1
2016-Apr-29 04:16N 22°16' E 114°05'1412.7
2016-Apr-29 03:11N 22°11' E 113°52'1715.2
2016-Apr-29 02:05N 22°11' E 113°34'2937.4
2016-Apr-29 01:19N 22°16' E 114°05'4 4.7
2016-Apr-29 00:34N 22°18' E 114°08'32 6.4
2016-Apr-28 19:32N 22°12' E 113°34'3334.3
2016-Apr-28 18:33N 22°17' E 114°09'0 0.0
2016-Apr-28 17:34N 22°17' E 114°09'3315.7
2016-Apr-28 15:27N 22°11' E 113°34'3337.2
2016-Apr-28 14:33N 22°17' E 114°09'1717.1
2016-Apr-28 13:32N 22°11' E 113°52'1716.8
2016-Apr-28 12:33N 22°12' E 113°34'3333.6
2016-Apr-28 11:33N 22°17' E 114°09'1817.1
2016-Apr-28 10:31N 22°11' E 113°51'16 0.8
2016-Apr-27 13:05N 22°12' E 113°34'2936.8
2016-Apr-27 12:18N 22°16' E 114°05'4 5.9
2016-Apr-27 11:34N 22°17' E 114°09'3333.1
2016-Apr-27 10:33N 22°12' E 113°34'2822.3
2016-Apr-27 09:17N 22°16' E 114°04'5 6.8
2016-Apr-27 08:33N 22°17' E 114°09'4 1.8
2016-Apr-27 06:14N 22°16' E 114°05'4 6.3
2016-Apr-27 05:33N 22°17' E 114°09'1917.3
2016-Apr-27 04:27N 22°11' E 113°50'11 9.5
2016-Apr-27 03:21N 22°11' E 113°38'2937.3
2016-Apr-27 02:33N 22°17' E 114°09'1918.0
2016-Apr-27 01:30N 22°11' E 113°50'11 9.6
2016-Apr-27 00:22N 22°11' E 113°38'3036.9
2016-Apr-26 23:33N 22°17' E 114°09'1817.2
2016-Apr-26 22:31N 22°11' E 113°51'13 5.7
2016-Apr-26 20:15N 22°16' E 114°04'5 7.0
2016-Apr-26 19:34N 22°17' E 114°09'3310.7
2016-Apr-26 16:28N 22°11' E 113°34'3336.2
2016-Apr-26 15:33N 22°17' E 114°09'0 0.0
2016-Apr-26 14:34N 22°17' E 114°09'5 0.9
2016-Apr-26 09:16N 22°16' E 114°04'5 6.8
2016-Apr-26 08:33N 22°17' E 114°09'3322.1
2016-Apr-26 07:03N 22°12' E 113°34'2936.3
2016-Apr-26 06:16N 22°16' E 114°04'5 6.6
2016-Apr-26 05:33N 22°17' E 114°09'1817.8
2016-Apr-26 04:32N 22°11' E 113°51'8 6.8
2016-Apr-26 03:18N 22°11' E 113°42'2635.3
2016-Apr-26 02:33N 22°17' E 114°09'1817.1
2016-Apr-26 01:31N 22°11' E 113°51'1210.8
2016-Apr-26 00:25N 22°11' E 113°38'2934.1
2016-Apr-25 23:34N 22°17' E 114°09'0 0.0
2016-Apr-25 22:34N 22°17' E 114°09'0 0.0
2016-Apr-25 21:33N 22°17' E 114°09'0 0.0
2016-Apr-25 20:34N 22°17' E 114°09'0 0.0
2016-Apr-25 19:34N 22°17' E 114°09'0 0.0
2016-Apr-25 18:34N 22°17' E 114°09'0 0.1
2016-Apr-25 17:33N 22°17' E 114°09'0 0.1
2016-Apr-25 16:33N 22°17' E 114°09'0 0.0
2016-Apr-25 15:33N 22°17' E 114°09'1 0.5
2016-Apr-25 14:33N 22°17' E 114°09'33 1.5
2016-Apr-24 16:27N 22°11' E 113°34'3337.3
2016-Apr-24 15:34N 22°17' E 114°09'0 0.1
2016-Apr-24 14:34N 22°17' E 114°09'5 2.2
2016-Apr-24 12:17N 22°15' E 114°04'5 7.1
2016-Apr-24 11:34N 22°17' E 114°09'5 2.2
2016-Apr-24 09:15N 22°16' E 114°04'5 7.0
2016-Apr-24 08:33N 22°17' E 114°09'18 9.1
2016-Apr-24 06:33N 22°11' E 113°51'1818.1
2016-Apr-24 05:33N 22°17' E 114°09'1918.3
2016-Apr-24 04:32N 22°11' E 113°50'1514.1
2016-Apr-24 03:28N 22°11' E 113°34'3336.8
2016-Apr-24 02:33N 22°17' E 114°09'1817.2
2016-Apr-24 01:31N 22°11' E 113°51'1615.3
2016-Apr-24 00:28N 22°12' E 113°34'3336.6
2016-Apr-23 23:34N 22°17' E 114°09'0 0.0
2016-Apr-23 22:33N 22°17' E 114°09'0 0.0
2016-Apr-23 21:33N 22°17' E 114°09'0 0.0
2016-Apr-23 20:33N 22°17' E 114°09'0 0.0
2016-Apr-23 19:33N 22°17' E 114°09'0 0.0
2016-Apr-23 18:33N 22°17' E 114°09'3316.1
2016-Apr-23 16:30N 22°12' E 113°34'3335.6
2016-Apr-23 15:33N 22°17' E 114°09'0 0.0
2016-Apr-23 14:34N 22°17' E 114°09'18 8.9
2016-Apr-23 12:33N 22°12' E 113°51'1817.9
2016-Apr-23 11:34N 22°17' E 114°09'3322.1
2016-Apr-23 10:03N 22°12' E 113°34'2937.5
2016-Apr-23 09:17N 22°16' E 114°04'5 6.3
2016-Apr-23 08:33N 22°17' E 114°09'4 1.9
2016-Apr-23 06:14N 22°16' E 114°05'4 6.5
2016-Apr-23 05:33N 22°17' E 114°09'2018.4
2016-Apr-23 04:29N 22°11' E 113°49'1414.3
2016-Apr-23 03:31N 22°11' E 113°34'3334.4
2016-Apr-23 02:33N 22°17' E 114°09'1919.0
2016-Apr-23 01:33N 22°11' E 113°50'1513.8
2016-Apr-23 00:29N 22°11' E 113°34'3336.0
2016-Apr-22 23:33N 22°17' E 114°09'0 0.0
2016-Apr-22 22:33N 22°17' E 114°09'0 0.0
2016-Apr-22 21:33N 22°17' E 114°09'0 0.0
2016-Apr-22 20:33N 22°17' E 114°09'0 0.0
2016-Apr-22 19:33N 22°17' E 114°09'0 0.0
2016-Apr-22 18:34N 22°17' E 114°09'5 2.3
2016-Apr-22 16:16N 22°15' E 114°04'5 7.4
2016-Apr-22 15:33N 22°17' E 114°09'6 2.8
2016-Apr-22 13:19N 22°15' E 114°03'6 8.2
2016-Apr-22 12:33N 22°17' E 114°09'4 1.9
2016-Apr-22 10:18N 22°16' E 114°05'4 5.4
2016-Apr-22 09:34N 22°17' E 114°09'28 7.1
2016-Apr-22 05:33N 22°11' E 113°39'2928.7
2016-Apr-22 04:33N 22°17' E 114°09'2322.9
2016-Apr-22 03:33N 22°11' E 113°45'8 7.4
2016-Apr-22 02:33N 22°11' E 113°37'3030.4
2016-Apr-22 01:33N 22°17' E 114°09'1815.8
2016-Apr-22 00:26N 22°11' E 113°51'16 2.7
2016-Apr-21 18:29N 22°11' E 113°34'3336.1
2016-Apr-21 17:33N 22°17' E 114°09'1816.9
2016-Apr-21 16:31N 22°11' E 113°51'9 4.2
2016-Apr-21 14:18N 22°11' E 113°41'2635.9
2016-Apr-21 13:34N 22°17' E 114°09'1918.0
2016-Apr-21 12:29N 22°11' E 113°49'8 6.8
2016-Apr-21 11:20N 22°11' E 113°41'2734.5
2016-Apr-21 10:34N 22°17' E 114°09'1817.8
2016-Apr-21 09:33N 22°11' E 113°51'1615.5
2016-Apr-21 08:32N 22°11' E 113°34'3334.2
2016-Apr-21 07:33N 22°17' E 114°09'1817.7
2016-Apr-21 06:33N 22°11' E 113°51'13 5.7
2016-Apr-21 04:18N 22°16' E 114°04'5 6.5
2016-Apr-21 03:33N 22°17' E 114°09'20 6.1
2016-Apr-21 00:15N 22°12' E 113°48'2029.4
2016-Apr-20 23:33N 22°17' E 114°09'0 0.0
2016-Apr-20 22:33N 22°17' E 114°09'0 0.0
2016-Apr-20 21:33N 22°17' E 114°09'0 0.0
2016-Apr-20 20:33N 22°17' E 114°09'0 0.0
2016-Apr-20 19:33N 22°17' E 114°09'0 0.0
2016-Apr-20 18:33N 22°17' E 114°09'  
Track history (hours):
 
Tides and Currents Weather Stations Pressure Air Temp Water Temp Dewpoint Dewpoint Depression Visibility Wind Speed Wind Dir Waves Ship Positions

Cacilhas

Last reported at 2016-Apr-30 17:33 UTC. Time now 2016-Apr-30 18:45 UTC.
Position N 22°12' E 113°51'.

Length 29 m; draft 4.8 m.

Type: High speed craft. MMSI: 477092000.

Date/timePositionNaut miles runAvg speedWind from/ knotsBaromVisibWave heightAir tempDewpointWater temp
2016-Apr-30 17:33N 22°12' E 113°51'1717.4
2016-Apr-30 16:34N 22°17' E 114°09'3316.5
2016-Apr-30 14:33N 22°12' E 113°34'3333.7
2016-Apr-30 13:33N 22°17' E 114°09'1817.9
2016-Apr-30 12:33N 22°11' E 113°51'11 9.8
2016-Apr-30 11:24N 22°11' E 113°39'2934.6
2016-Apr-30 10:33N 22°17' E 114°09'1818.0
2016-Apr-30 09:33N 22°11' E 113°51'9 7.2
2016-Apr-30 08:18N 22°11' E 113°41'2735.7
2016-Apr-30 07:33N 22°17' E 114°09'1918.2
2016-Apr-30 06:32N 22°11' E 113°50'14 6.2
2016-Apr-30 04:15N 22°16' E 114°05'4 6.3
2016-Apr-30 03:33N 22°17' E 114°09'5 2.1
2016-Apr-30 01:15N 22°15' E 114°04'5 7.2
2016-Apr-30 00:33N 22°17' E 114°09'27 4.3
2016-Apr-29 18:14N 22°11' E 113°40'2740.3
2016-Apr-29 17:33N 22°17' E 114°09'1917.9
2016-Apr-29 16:29N 22°11' E 113°49'15 7.6
2016-Apr-29 14:33N 22°12' E 113°34'3333.2
2016-Apr-29 13:33N 22°17' E 114°09'2019.7
2016-Apr-29 12:33N 22°11' E 113°49'1413.1
2016-Apr-29 11:29N 22°11' E 113°34'3335.5
2016-Apr-29 10:33N 22°17' E 114°09'1918.8
2016-Apr-29 09:33N 22°11' E 113°50'8 6.9
2016-Apr-29 08:21N 22°11' E 113°41'2733.4
2016-Apr-29 07:33N 22°17' E 114°09'2020.0
2016-Apr-29 06:34N 22°11' E 113°49'16 7.1
2016-Apr-29 04:16N 22°16' E 114°05'1412.7
2016-Apr-29 03:11N 22°11' E 113°52'1715.2
2016-Apr-29 02:05N 22°11' E 113°34'2937.4
2016-Apr-29 01:19N 22°16' E 114°05'4 4.7
2016-Apr-29 00:34N 22°18' E 114°08'32 6.4
2016-Apr-28 19:32N 22°12' E 113°34'3334.3
2016-Apr-28 18:33N 22°17' E 114°09'0 0.0
2016-Apr-28 17:34N 22°17' E 114°09'3315.7
2016-Apr-28 15:27N 22°11' E 113°34'3337.2
2016-Apr-28 14:33N 22°17' E 114°09'1717.1
2016-Apr-28 13:32N 22°11' E 113°52'1716.8
2016-Apr-28 12:33N 22°12' E 113°34'3333.6
2016-Apr-28 11:33N 22°17' E 114°09'1817.1
2016-Apr-28 10:31N 22°11' E 113°51'16 0.8
2016-Apr-27 13:05N 22°12' E 113°34'2936.8
2016-Apr-27 12:18N 22°16' E 114°05'4 5.9
2016-Apr-27 11:34N 22°17' E 114°09'3333.1
2016-Apr-27 10:33N 22°12' E 113°34'2822.3
2016-Apr-27 09:17N 22°16' E 114°04'5 6.8
2016-Apr-27 08:33N 22°17' E 114°09'4 1.8
2016-Apr-27 06:14N 22°16' E 114°05'4 6.3
2016-Apr-27 05:33N 22°17' E 114°09'1917.3
2016-Apr-27 04:27N 22°11' E 113°50'11 9.5
2016-Apr-27 03:21N 22°11' E 113°38'2937.3
2016-Apr-27 02:33N 22°17' E 114°09'1918.0
2016-Apr-27 01:30N 22°11' E 113°50'11 9.6
2016-Apr-27 00:22N 22°11' E 113°38'3036.9
2016-Apr-26 23:33N 22°17' E 114°09'1817.2
2016-Apr-26 22:31N 22°11' E 113°51'13 5.7
2016-Apr-26 20:15N 22°16' E 114°04'5 7.0
2016-Apr-26 19:34N 22°17' E 114°09'3310.7
2016-Apr-26 16:28N 22°11' E 113°34'3336.2
2016-Apr-26 15:33N 22°17' E 114°09'0 0.0
2016-Apr-26 14:34N 22°17' E 114°09'5 0.9
2016-Apr-26 09:16N 22°16' E 114°04'5 6.8
2016-Apr-26 08:33N 22°17' E 114°09'3322.1
2016-Apr-26 07:03N 22°12' E 113°34'2936.3
2016-Apr-26 06:16N 22°16' E 114°04'5 6.6
2016-Apr-26 05:33N 22°17' E 114°09'1817.8
2016-Apr-26 04:32N 22°11' E 113°51'8 6.8
2016-Apr-26 03:18N 22°11' E 113°42'2635.3
2016-Apr-26 02:33N 22°17' E 114°09'1817.1
2016-Apr-26 01:31N 22°11' E 113°51'1210.8
2016-Apr-26 00:25N 22°11' E 113°38'2934.1
2016-Apr-25 23:34N 22°17' E 114°09'0 0.0
2016-Apr-25 22:34N 22°17' E 114°09'0 0.0
2016-Apr-25 21:33N 22°17' E 114°09'0 0.0
2016-Apr-25 20:34N 22°17' E 114°09'0 0.0
2016-Apr-25 19:34N 22°17' E 114°09'0 0.0
2016-Apr-25 18:34N 22°17' E 114°09'0 0.1
2016-Apr-25 17:33N 22°17' E 114°09'0 0.1
2016-Apr-25 16:33N 22°17' E 114°09'0 0.0
2016-Apr-25 15:33N 22°17' E 114°09'1 0.5
2016-Apr-25 14:33N 22°17' E 114°09'33 1.5
2016-Apr-24 16:27N 22°11' E 113°34'3337.3
2016-Apr-24 15:34N 22°17' E 114°09'0 0.1
2016-Apr-24 14:34N 22°17' E 114°09'5 2.2
2016-Apr-24 12:17N 22°15' E 114°04'5 7.1
2016-Apr-24 11:34N 22°17' E 114°09'5 2.2
2016-Apr-24 09:15N 22°16' E 114°04'5 7.0
2016-Apr-24 08:33N 22°17' E 114°09'18 9.1
2016-Apr-24 06:33N 22°11' E 113°51'1818.1
2016-Apr-24 05:33N 22°17' E 114°09'1918.3
2016-Apr-24 04:32N 22°11' E 113°50'1514.1
2016-Apr-24 03:28N 22°11' E 113°34'3336.8
2016-Apr-24 02:33N 22°17' E 114°09'1817.2
2016-Apr-24 01:31N 22°11' E 113°51'1615.3
2016-Apr-24 00:28N 22°12' E 113°34'3336.6
2016-Apr-23 23:34N 22°17' E 114°09'0 0.0
2016-Apr-23 22:33N 22°17' E 114°09'0 0.0
2016-Apr-23 21:33N 22°17' E 114°09'0 0.0
2016-Apr-23 20:33N 22°17' E 114°09'0 0.0
2016-Apr-23 19:33N 22°17' E 114°09'0 0.0
2016-Apr-23 18:33N 22°17' E 114°09'3316.1
2016-Apr-23 16:30N 22°12' E 113°34'3335.6
2016-Apr-23 15:33N 22°17' E 114°09'0 0.0
2016-Apr-23 14:34N 22°17' E 114°09'18 8.9
2016-Apr-23 12:33N 22°12' E 113°51'1817.9
2016-Apr-23 11:34N 22°17' E 114°09'3322.1
2016-Apr-23 10:03N 22°12' E 113°34'2937.5
2016-Apr-23 09:17N 22°16' E 114°04'5 6.3
2016-Apr-23 08:33N 22°17' E 114°09'4 1.9
2016-Apr-23 06:14N 22°16' E 114°05'4 6.5
2016-Apr-23 05:33N 22°17' E 114°09'2018.4
2016-Apr-23 04:29N 22°11' E 113°49'1414.3
2016-Apr-23 03:31N 22°11' E 113°34'3334.4
2016-Apr-23 02:33N 22°17' E 114°09'1919.0
2016-Apr-23 01:33N 22°11' E 113°50'1513.8
2016-Apr-23 00:29N 22°11' E 113°34'3336.0
2016-Apr-22 23:33N 22°17' E 114°09'0 0.0
2016-Apr-22 22:33N 22°17' E 114°09'0 0.0
2016-Apr-22 21:33N 22°17' E 114°09'0 0.0
2016-Apr-22 20:33N 22°17' E 114°09'0 0.0
2016-Apr-22 19:33N 22°17' E 114°09'0 0.0
2016-Apr-22 18:34N 22°17' E 114°09'5 2.3
2016-Apr-22 16:16N 22°15' E 114°04'5 7.4
2016-Apr-22 15:33N 22°17' E 114°09'6 2.8
2016-Apr-22 13:19N 22°15' E 114°03'6 8.2
2016-Apr-22 12:33N 22°17' E 114°09'4 1.9
2016-Apr-22 10:18N 22°16' E 114°05'4 5.4
2016-Apr-22 09:34N 22°17' E 114°09'28 7.1
2016-Apr-22 05:33N 22°11' E 113°39'2928.7
2016-Apr-22 04:33N 22°17' E 114°09'2322.9
2016-Apr-22 03:33N 22°11' E 113°45'8 7.4
2016-Apr-22 02:33N 22°11' E 113°37'3030.4
2016-Apr-22 01:33N 22°17' E 114°09'1815.8
2016-Apr-22 00:26N 22°11' E 113°51'16 2.7
2016-Apr-21 18:29N 22°11' E 113°34'3336.1
2016-Apr-21 17:33N 22°17' E 114°09'1816.9
2016-Apr-21 16:31N 22°11' E 113°51'9 4.2
2016-Apr-21 14:18N 22°11' E 113°41'2635.9
2016-Apr-21 13:34N 22°17' E 114°09'1918.0
2016-Apr-21 12:29N 22°11' E 113°49'8 6.8
2016-Apr-21 11:20N 22°11' E 113°41'2734.5
2016-Apr-21 10:34N 22°17' E 114°09'1817.8
2016-Apr-21 09:33N 22°11' E 113°51'1615.5
2016-Apr-21 08:32N 22°11' E 113°34'3334.2
2016-Apr-21 07:33N 22°17' E 114°09'1817.7
2016-Apr-21 06:33N 22°11' E 113°51'13 5.7
2016-Apr-21 04:18N 22°16' E 114°04'5 6.5
2016-Apr-21 03:33N 22°17' E 114°09'20 6.1
2016-Apr-21 00:15N 22°12' E 113°48'2029.4
2016-Apr-20 23:33N 22°17' E 114°09'0 0.0
2016-Apr-20 22:33N 22°17' E 114°09'0 0.0
2016-Apr-20 21:33N 22°17' E 114°09'0 0.0
2016-Apr-20 20:33N 22°17' E 114°09'0 0.0
2016-Apr-20 19:33N 22°17' E 114°09'0 0.0
2016-Apr-20 18:33N 22°17' E 114°09'  

Dump ship's entire track history